sensor_id;sensor_type;location;lat;lon;timestamp;P1;durP1;ratioP1;P2;durP2;ratioP2
16468;SDS011;8345;50.902;6.956;2024-01-30T00:01:57;12.93;;;9.40;;
16468;SDS011;8345;50.902;6.956;2024-01-30T00:04:25;11.17;;;9.57;;
16468;SDS011;8345;50.902;6.956;2024-01-30T00:06:52;11.80;;;10.60;;
16468;SDS011;8345;50.902;6.956;2024-01-30T00:09:20;13.87;;;10.17;;
16468;SDS011;8345;50.902;6.956;2024-01-30T00:11:48;11.17;;;9.83;;
16468;SDS011;8345;50.902;6.956;2024-01-30T00:14:16;11.13;;;9.80;;
16468;SDS011;8345;50.902;6.956;2024-01-30T00:16:43;10.57;;;9.50;;
16468;SDS011;8345;50.902;6.956;2024-01-30T00:19:11;12.27;;;10.77;;
16468;SDS011;8345;50.902;6.956;2024-01-30T00:21:38;11.30;;;10.10;;
16468;SDS011;8345;50.902;6.956;2024-01-30T00:24:06;11.53;;;10.20;;
16468;SDS011;8345;50.902;6.956;2024-01-30T00:26:34;11.00;;;9.80;;
16468;SDS011;8345;50.902;6.956;2024-01-30T00:29:02;11.33;;;10.17;;
16468;SDS011;8345;50.902;6.956;2024-01-30T00:31:29;11.17;;;10.00;;
16468;SDS011;8345;50.902;6.956;2024-01-30T00:33:56;11.83;;;10.50;;
16468;SDS011;8345;50.902;6.956;2024-01-30T00:36:24;11.30;;;10.10;;
16468;SDS011;8345;50.902;6.956;2024-01-30T00:38:51;12.23;;;10.97;;
16468;SDS011;8345;50.902;6.956;2024-01-30T00:41:18;11.67;;;10.33;;
16468;SDS011;8345;50.902;6.956;2024-01-30T00:43:46;12.60;;;10.73;;
16468;SDS011;8345;50.902;6.956;2024-01-30T00:46:14;11.67;;;10.53;;
16468;SDS011;8345;50.902;6.956;2024-01-30T00:48:41;11.27;;;9.77;;
16468;SDS011;8345;50.902;6.956;2024-01-30T00:51:08;11.47;;;10.30;;
16468;SDS011;8345;50.902;6.956;2024-01-30T00:53:36;11.90;;;10.57;;
16468;SDS011;8345;50.902;6.956;2024-01-30T00:56:03;12.13;;;10.93;;
16468;SDS011;8345;50.902;6.956;2024-01-30T00:58:30;12.57;;;11.07;;
16468;SDS011;8345;50.902;6.956;2024-01-30T01:00:59;11.63;;;10.00;;
16468;SDS011;8345;50.902;6.956;2024-01-30T01:03:26;11.70;;;10.60;;
16468;SDS011;8345;50.902;6.956;2024-01-30T01:05:53;11.00;;;9.80;;
16468;SDS011;8345;50.902;6.956;2024-01-30T01:08:20;11.40;;;10.27;;
16468;SDS011;8345;50.902;6.956;2024-01-30T01:10:47;11.43;;;9.80;;
16468;SDS011;8345;50.902;6.956;2024-01-30T01:13:15;11.57;;;10.17;;
16468;SDS011;8345;50.902;6.956;2024-01-30T01:15:42;13.33;;;10.00;;
16468;SDS011;8345;50.902;6.956;2024-01-30T01:18:11;13.97;;;10.07;;
16468;SDS011;8345;50.902;6.956;2024-01-30T01:20:38;12.87;;;10.00;;
16468;SDS011;8345;50.902;6.956;2024-01-30T01:23:05;11.87;;;10.30;;
16468;SDS011;8345;50.902;6.956;2024-01-30T01:25:32;11.37;;;9.93;;
16468;SDS011;8345;50.902;6.956;2024-01-30T01:27:59;10.77;;;9.67;;
16468;SDS011;8345;50.902;6.956;2024-01-30T01:30:26;13.83;;;9.90;;
16468;SDS011;8345;50.902;6.956;2024-01-30T01:32:54;11.33;;;10.17;;
16468;SDS011;8345;50.902;6.956;2024-01-30T01:35:24;11.87;;;9.47;;
16468;SDS011;8345;50.902;6.956;2024-01-30T01:37:51;10.63;;;9.50;;
16468;SDS011;8345;50.902;6.956;2024-01-30T01:40:22;11.57;;;9.50;;
16468;SDS011;8345;50.902;6.956;2024-01-30T01:42:49;10.30;;;8.87;;
16468;SDS011;8345;50.902;6.956;2024-01-30T01:45:17;11.40;;;10.20;;
16468;SDS011;8345;50.902;6.956;2024-01-30T01:47:47;12.47;;;9.50;;
16468;SDS011;8345;50.902;6.956;2024-01-30T01:50:15;10.67;;;9.60;;
16468;SDS011;8345;50.902;6.956;2024-01-30T01:52:45;12.17;;;9.43;;
16468;SDS011;8345;50.902;6.956;2024-01-30T01:55:14;11.17;;;9.40;;
16468;SDS011;8345;50.902;6.956;2024-01-30T01:57:42;10.33;;;9.10;;
16468;SDS011;8345;50.902;6.956;2024-01-30T02:00:10;10.40;;;9.27;;
16468;SDS011;8345;50.902;6.956;2024-01-30T02:02:37;10.73;;;8.73;;
16468;SDS011;8345;50.902;6.956;2024-01-30T02:05:06;12.07;;;9.23;;
16468;SDS011;8345;50.902;6.956;2024-01-30T02:07:33;12.03;;;8.93;;
16468;SDS011;8345;50.902;6.956;2024-01-30T02:10:02;10.80;;;9.20;;
16468;SDS011;8345;50.902;6.956;2024-01-30T02:12:29;12.30;;;9.53;;
16468;SDS011;8345;50.902;6.956;2024-01-30T02:14:57;11.67;;;9.77;;
16468;SDS011;8345;50.902;6.956;2024-01-30T02:17:24;10.30;;;9.23;;
16468;SDS011;8345;50.902;6.956;2024-01-30T02:19:51;9.93;;;8.83;;
16468;SDS011;8345;50.902;6.956;2024-01-30T02:22:20;10.53;;;9.20;;
16468;SDS011;8345;50.902;6.956;2024-01-30T02:24:47;10.37;;;9.10;;
16468;SDS011;8345;50.902;6.956;2024-01-30T02:27:14;10.77;;;9.67;;
16468;SDS011;8345;50.902;6.956;2024-01-30T02:29:42;10.97;;;9.70;;
16468;SDS011;8345;50.902;6.956;2024-01-30T02:32:09;11.67;;;9.70;;
16468;SDS011;8345;50.902;6.956;2024-01-30T02:34:36;11.03;;;9.37;;
16468;SDS011;8345;50.902;6.956;2024-01-30T02:37:03;10.30;;;9.30;;
16468;SDS011;8345;50.902;6.956;2024-01-30T02:39:33;10.60;;;9.23;;
16468;SDS011;8345;50.902;6.956;2024-01-30T02:42:00;10.43;;;9.43;;
16468;SDS011;8345;50.902;6.956;2024-01-30T02:44:27;10.93;;;9.13;;
16468;SDS011;8345;50.902;6.956;2024-01-30T02:46:55;10.20;;;9.17;;
16468;SDS011;8345;50.902;6.956;2024-01-30T02:49:22;10.70;;;8.43;;
16468;SDS011;8345;50.902;6.956;2024-01-30T02:51:49;11.50;;;9.33;;
16468;SDS011;8345;50.902;6.956;2024-01-30T02:54:16;11.03;;;9.43;;
16468;SDS011;8345;50.902;6.956;2024-01-30T02:56:45;10.43;;;9.13;;
16468;SDS011;8345;50.902;6.956;2024-01-30T02:59:13;9.63;;;8.43;;
16468;SDS011;8345;50.902;6.956;2024-01-30T03:01:43;10.43;;;9.13;;
16468;SDS011;8345;50.902;6.956;2024-01-30T03:04:11;11.03;;;9.83;;
16468;SDS011;8345;50.902;6.956;2024-01-30T03:06:38;11.00;;;9.17;;
16468;SDS011;8345;50.902;6.956;2024-01-30T03:09:05;11.53;;;8.77;;
16468;SDS011;8345;50.902;6.956;2024-01-30T03:11:34;11.80;;;9.73;;
16468;SDS011;8345;50.902;6.956;2024-01-30T03:14:02;10.23;;;9.03;;
16468;SDS011;8345;50.902;6.956;2024-01-30T03:16:38;12.27;;;9.40;;
16468;SDS011;8345;50.902;6.956;2024-01-30T03:19:07;11.13;;;9.70;;
16468;SDS011;8345;50.902;6.956;2024-01-30T03:21:53;11.07;;;8.87;;
16468;SDS011;8345;50.902;6.956;2024-01-30T03:24:36;10.50;;;9.50;;
16468;SDS011;8345;50.902;6.956;2024-01-30T03:27:31;10.57;;;9.30;;
16468;SDS011;8345;50.902;6.956;2024-01-30T03:30:24;10.33;;;9.27;;
16468;SDS011;8345;50.902;6.956;2024-01-30T03:32:54;10.37;;;9.37;;
16468;SDS011;8345;50.902;6.956;2024-01-30T03:35:30;10.30;;;9.23;;
16468;SDS011;8345;50.902;6.956;2024-01-30T03:38:11;10.93;;;9.67;;
16468;SDS011;8345;50.902;6.956;2024-01-30T03:43:51;10.40;;;9.27;;
16468;SDS011;8345;50.902;6.956;2024-01-30T03:49:21;9.63;;;8.70;;
16468;SDS011;8345;50.902;6.956;2024-01-30T03:51:49;10.87;;;9.23;;
16468;SDS011;8345;50.902;6.956;2024-01-30T03:54:16;14.40;;;9.80;;
16468;SDS011;8345;50.902;6.956;2024-01-30T03:56:43;11.13;;;9.60;;
16468;SDS011;8345;50.902;6.956;2024-01-30T03:59:11;11.77;;;9.17;;
16468;SDS011;8345;50.902;6.956;2024-01-30T04:01:38;9.23;;;8.30;;
16468;SDS011;8345;50.902;6.956;2024-01-30T04:04:06;10.93;;;8.77;;
16468;SDS011;8345;50.902;6.956;2024-01-30T04:06:36;11.60;;;9.20;;
16468;SDS011;8345;50.902;6.956;2024-01-30T04:09:03;10.07;;;9.07;;
16468;SDS011;8345;50.902;6.956;2024-01-30T04:11:31;9.53;;;8.53;;
16468;SDS011;8345;50.902;6.956;2024-01-30T04:13:58;9.93;;;8.60;;
16468;SDS011;8345;50.902;6.956;2024-01-30T04:16:26;10.40;;;9.13;;
16468;SDS011;8345;50.902;6.956;2024-01-30T04:18:53;11.07;;;9.27;;
16468;SDS011;8345;50.902;6.956;2024-01-30T04:21:21;11.50;;;9.47;;
16468;SDS011;8345;50.902;6.956;2024-01-30T04:23:50;10.33;;;9.13;;
16468;SDS011;8345;50.902;6.956;2024-01-30T04:26:17;8.97;;;8.07;;
16468;SDS011;8345;50.902;6.956;2024-01-30T04:28:45;9.63;;;7.97;;
16468;SDS011;8345;50.902;6.956;2024-01-30T04:31:12;10.53;;;8.97;;
16468;SDS011;8345;50.902;6.956;2024-01-30T04:33:39;10.07;;;8.63;;
16468;SDS011;8345;50.902;6.956;2024-01-30T04:36:08;9.77;;;8.03;;
16468;SDS011;8345;50.902;6.956;2024-01-30T04:38:36;10.23;;;8.23;;
16468;SDS011;8345;50.902;6.956;2024-01-30T04:41:05;9.73;;;7.97;;
16468;SDS011;8345;50.902;6.956;2024-01-30T04:43:32;9.63;;;8.30;;
16468;SDS011;8345;50.902;6.956;2024-01-30T04:45:59;9.40;;;8.40;;
16468;SDS011;8345;50.902;6.956;2024-01-30T04:48:26;9.33;;;8.37;;
16468;SDS011;8345;50.902;6.956;2024-01-30T04:50:53;9.73;;;8.73;;
16468;SDS011;8345;50.902;6.956;2024-01-30T04:53:21;12.03;;;8.70;;
16468;SDS011;8345;50.902;6.956;2024-01-30T04:55:48;11.20;;;9.20;;
16468;SDS011;8345;50.902;6.956;2024-01-30T04:58:17;9.73;;;8.73;;
16468;SDS011;8345;50.902;6.956;2024-01-30T05:00:44;10.67;;;8.83;;
16468;SDS011;8345;50.902;6.956;2024-01-30T05:03:16;10.97;;;7.80;;
16468;SDS011;8345;50.902;6.956;2024-01-30T05:05:43;9.70;;;8.60;;
16468;SDS011;8345;50.902;6.956;2024-01-30T05:08:13;10.60;;;8.93;;
16468;SDS011;8345;50.902;6.956;2024-01-30T05:10:40;9.70;;;8.37;;
16468;SDS011;8345;50.902;6.956;2024-01-30T05:13:09;9.17;;;8.17;;
16468;SDS011;8345;50.902;6.956;2024-01-30T05:15:42;11.63;;;9.03;;
16468;SDS011;8345;50.902;6.956;2024-01-30T05:18:10;12.23;;;8.57;;
16468;SDS011;8345;50.902;6.956;2024-01-30T05:20:37;11.13;;;8.80;;
16468;SDS011;8345;50.902;6.956;2024-01-30T05:23:06;9.67;;;8.60;;
16468;SDS011;8345;50.902;6.956;2024-01-30T05:25:33;11.27;;;8.43;;
16468;SDS011;8345;50.902;6.956;2024-01-30T05:28:01;9.47;;;8.43;;
16468;SDS011;8345;50.902;6.956;2024-01-30T05:30:29;10.03;;;8.70;;
16468;SDS011;8345;50.902;6.956;2024-01-30T05:32:59;9.67;;;8.47;;
16468;SDS011;8345;50.902;6.956;2024-01-30T05:35:30;11.77;;;9.10;;
16468;SDS011;8345;50.902;6.956;2024-01-30T05:37:58;9.80;;;8.80;;
16468;SDS011;8345;50.902;6.956;2024-01-30T05:40:25;10.87;;;9.20;;
16468;SDS011;8345;50.902;6.956;2024-01-30T05:42:53;11.93;;;9.30;;
16468;SDS011;8345;50.902;6.956;2024-01-30T05:45:26;9.47;;;8.57;;
16468;SDS011;8345;50.902;6.956;2024-01-30T05:47:55;9.80;;;8.17;;
16468;SDS011;8345;50.902;6.956;2024-01-30T05:50:25;11.33;;;9.47;;
16468;SDS011;8345;50.902;6.956;2024-01-30T05:52:55;10.20;;;9.10;;
16468;SDS011;8345;50.902;6.956;2024-01-30T05:55:24;12.23;;;10.17;;
16468;SDS011;8345;50.902;6.956;2024-01-30T05:57:52;11.83;;;9.27;;
16468;SDS011;8345;50.902;6.956;2024-01-30T06:00:21;10.00;;;9.07;;
16468;SDS011;8345;50.902;6.956;2024-01-30T06:02:49;10.50;;;9.20;;
16468;SDS011;8345;50.902;6.956;2024-01-30T06:05:21;12.10;;;9.73;;
16468;SDS011;8345;50.902;6.956;2024-01-30T06:07:50;9.80;;;8.80;;
16468;SDS011;8345;50.902;6.956;2024-01-30T06:10:18;9.90;;;8.90;;
16468;SDS011;8345;50.902;6.956;2024-01-30T06:12:46;9.47;;;8.57;;
16468;SDS011;8345;50.902;6.956;2024-01-30T06:15:13;9.17;;;8.27;;
16468;SDS011;8345;50.902;6.956;2024-01-30T06:17:41;9.40;;;8.33;;
16468;SDS011;8345;50.902;6.956;2024-01-30T06:20:08;9.87;;;8.83;;
16468;SDS011;8345;50.902;6.956;2024-01-30T06:22:35;10.37;;;9.10;;
16468;SDS011;8345;50.902;6.956;2024-01-30T06:25:04;10.17;;;9.17;;
16468;SDS011;8345;50.902;6.956;2024-01-30T06:27:31;11.53;;;9.27;;
16468;SDS011;8345;50.902;6.956;2024-01-30T06:29:58;11.30;;;8.73;;
16468;SDS011;8345;50.902;6.956;2024-01-30T06:32:26;10.77;;;9.40;;
16468;SDS011;8345;50.902;6.956;2024-01-30T06:34:53;11.17;;;9.47;;
16468;SDS011;8345;50.902;6.956;2024-01-30T06:37:21;10.97;;;9.23;;
16468;SDS011;8345;50.902;6.956;2024-01-30T06:39:48;10.40;;;9.43;;
16468;SDS011;8345;50.902;6.956;2024-01-30T06:42:16;12.03;;;9.33;;
16468;SDS011;8345;50.902;6.956;2024-01-30T06:44:44;10.93;;;9.50;;
16468;SDS011;8345;50.902;6.956;2024-01-30T06:47:11;12.00;;;9.57;;
16468;SDS011;8345;50.902;6.956;2024-01-30T06:49:38;10.90;;;9.17;;
16468;SDS011;8345;50.902;6.956;2024-01-30T06:52:07;11.50;;;9.80;;
16468;SDS011;8345;50.902;6.956;2024-01-30T06:54:34;10.63;;;9.53;;
16468;SDS011;8345;50.902;6.956;2024-01-30T06:57:01;13.43;;;10.00;;
16468;SDS011;8345;50.902;6.956;2024-01-30T06:59:31;12.23;;;10.13;;
16468;SDS011;8345;50.902;6.956;2024-01-30T07:01:58;12.07;;;9.70;;
16468;SDS011;8345;50.902;6.956;2024-01-30T07:04:25;12.63;;;10.77;;
16468;SDS011;8345;50.902;6.956;2024-01-30T07:06:52;11.53;;;10.33;;
16468;SDS011;8345;50.902;6.956;2024-01-30T07:09:20;10.70;;;9.60;;
16468;SDS011;8345;50.902;6.956;2024-01-30T07:11:48;10.17;;;9.27;;
16468;SDS011;8345;50.902;6.956;2024-01-30T07:14:16;10.80;;;9.70;;
16468;SDS011;8345;50.902;6.956;2024-01-30T07:16:45;14.63;;;11.00;;
16468;SDS011;8345;50.902;6.956;2024-01-30T07:19:12;11.13;;;9.67;;
16468;SDS011;8345;50.902;6.956;2024-01-30T07:21:40;11.03;;;9.93;;
16468;SDS011;8345;50.902;6.956;2024-01-30T07:24:08;11.37;;;9.97;;
16468;SDS011;8345;50.902;6.956;2024-01-30T07:26:35;10.17;;;9.10;;
16468;SDS011;8345;50.902;6.956;2024-01-30T07:29:02;11.73;;;8.93;;
16468;SDS011;8345;50.902;6.956;2024-01-30T07:31:29;10.90;;;9.80;;
16468;SDS011;8345;50.902;6.956;2024-01-30T07:33:58;9.83;;;8.77;;
16468;SDS011;8345;50.902;6.956;2024-01-30T07:36:26;11.50;;;9.27;;
16468;SDS011;8345;50.902;6.956;2024-01-30T07:38:53;11.47;;;9.63;;
16468;SDS011;8345;50.902;6.956;2024-01-30T07:41:21;10.77;;;9.60;;
16468;SDS011;8345;50.902;6.956;2024-01-30T07:43:49;12.57;;;9.77;;
16468;SDS011;8345;50.902;6.956;2024-01-30T07:46:17;9.80;;;8.80;;
16468;SDS011;8345;50.902;6.956;2024-01-30T07:48:47;11.13;;;9.17;;
16468;SDS011;8345;50.902;6.956;2024-01-30T07:51:15;12.77;;;9.00;;
16468;SDS011;8345;50.902;6.956;2024-01-30T07:53:43;11.13;;;8.87;;
16468;SDS011;8345;50.902;6.956;2024-01-30T07:56:11;10.43;;;8.83;;
16468;SDS011;8345;50.902;6.956;2024-01-30T07:58:38;11.23;;;9.33;;
16468;SDS011;8345;50.902;6.956;2024-01-30T08:01:06;9.57;;;8.57;;
16468;SDS011;8345;50.902;6.956;2024-01-30T08:03:33;11.30;;;10.17;;
16468;SDS011;8345;50.902;6.956;2024-01-30T08:06:02;10.70;;;9.07;;
16468;SDS011;8345;50.902;6.956;2024-01-30T08:08:31;10.90;;;9.07;;
16468;SDS011;8345;50.902;6.956;2024-01-30T08:11:09;10.17;;;9.10;;
16468;SDS011;8345;50.902;6.956;2024-01-30T08:13:38;10.23;;;9.10;;
16468;SDS011;8345;50.902;6.956;2024-01-30T08:16:06;11.00;;;9.90;;
16468;SDS011;8345;50.902;6.956;2024-01-30T08:18:34;11.93;;;9.73;;
16468;SDS011;8345;50.902;6.956;2024-01-30T08:21:01;9.73;;;8.80;;
16468;SDS011;8345;50.902;6.956;2024-01-30T08:23:31;11.40;;;9.20;;
16468;SDS011;8345;50.902;6.956;2024-01-30T08:25:58;12.50;;;9.37;;
16468;SDS011;8345;50.902;6.956;2024-01-30T08:28:26;10.00;;;9.00;;
16468;SDS011;8345;50.902;6.956;2024-01-30T08:30:53;10.70;;;9.60;;
16468;SDS011;8345;50.902;6.956;2024-01-30T08:33:20;10.43;;;9.33;;
16468;SDS011;8345;50.902;6.956;2024-01-30T08:35:47;12.63;;;8.77;;
16468;SDS011;8345;50.902;6.956;2024-01-30T08:38:14;12.07;;;9.83;;
16468;SDS011;8345;50.902;6.956;2024-01-30T08:40:43;11.90;;;9.13;;
16468;SDS011;8345;50.902;6.956;2024-01-30T08:43:10;12.17;;;8.57;;
16468;SDS011;8345;50.902;6.956;2024-01-30T08:45:38;10.07;;;9.07;;
16468;SDS011;8345;50.902;6.956;2024-01-30T08:48:08;12.50;;;8.97;;
16468;SDS011;8345;50.902;6.956;2024-01-30T08:50:35;10.97;;;9.13;;
16468;SDS011;8345;50.902;6.956;2024-01-30T08:53:02;13.50;;;9.47;;
16468;SDS011;8345;50.902;6.956;2024-01-30T08:55:29;11.77;;;9.07;;
16468;SDS011;8345;50.902;6.956;2024-01-30T08:57:58;9.90;;;8.90;;
16468;SDS011;8345;50.902;6.956;2024-01-30T09:00:26;11.07;;;9.57;;
16468;SDS011;8345;50.902;6.956;2024-01-30T09:02:53;11.47;;;9.40;;
16468;SDS011;8345;50.902;6.956;2024-01-30T09:05:20;11.10;;;9.37;;
16468;SDS011;8345;50.902;6.956;2024-01-30T09:07:47;11.90;;;9.67;;
16468;SDS011;8345;50.902;6.956;2024-01-30T09:10:15;10.47;;;8.90;;
16468;SDS011;8345;50.902;6.956;2024-01-30T09:12:42;10.20;;;9.20;;
16468;SDS011;8345;50.902;6.956;2024-01-30T09:15:11;11.63;;;9.13;;
16468;SDS011;8345;50.902;6.956;2024-01-30T09:17:38;9.77;;;8.40;;
16468;SDS011;8345;50.902;6.956;2024-01-30T09:20:06;9.80;;;8.80;;
16468;SDS011;8345;50.902;6.956;2024-01-30T09:22:34;10.63;;;9.53;;
16468;SDS011;8345;50.902;6.956;2024-01-30T09:25:01;10.03;;;8.97;;
16468;SDS011;8345;50.902;6.956;2024-01-30T09:27:29;10.80;;;9.20;;
16468;SDS011;8345;50.902;6.956;2024-01-30T09:29:56;13.27;;;10.40;;
16468;SDS011;8345;50.902;6.956;2024-01-30T09:32:24;11.07;;;9.43;;
16468;SDS011;8345;50.902;6.956;2024-01-30T09:34:54;10.17;;;9.10;;
16468;SDS011;8345;50.902;6.956;2024-01-30T09:37:21;10.80;;;9.57;;
16468;SDS011;8345;50.902;6.956;2024-01-30T09:39:49;13.07;;;9.33;;
16468;SDS011;8345;50.902;6.956;2024-01-30T09:42:18;10.60;;;9.10;;
16468;SDS011;8345;50.902;6.956;2024-01-30T09:44:47;11.10;;;10.00;;
16468;SDS011;8345;50.902;6.956;2024-01-30T09:47:18;10.63;;;9.50;;
16468;SDS011;8345;50.902;6.956;2024-01-30T09:49:46;11.17;;;8.90;;
16468;SDS011;8345;50.902;6.956;2024-01-30T09:52:14;13.90;;;10.30;;
16468;SDS011;8345;50.902;6.956;2024-01-30T09:54:42;11.37;;;9.60;;
16468;SDS011;8345;50.902;6.956;2024-01-30T09:57:11;12.33;;;9.87;;
16468;SDS011;8345;50.902;6.956;2024-01-30T09:59:38;10.13;;;8.93;;
16468;SDS011;8345;50.902;6.956;2024-01-30T10:02:05;11.37;;;9.67;;
16468;SDS011;8345;50.902;6.956;2024-01-30T10:04:33;11.97;;;9.07;;
16468;SDS011;8345;50.902;6.956;2024-01-30T10:07:02;10.07;;;9.07;;
16468;SDS011;8345;50.902;6.956;2024-01-30T10:09:31;14.07;;;9.20;;
16468;SDS011;8345;50.902;6.956;2024-01-30T10:11:59;10.53;;;9.03;;
16468;SDS011;8345;50.902;6.956;2024-01-30T10:14:28;10.90;;;8.50;;
16468;SDS011;8345;50.902;6.956;2024-01-30T10:16:57;11.57;;;9.20;;
16468;SDS011;8345;50.902;6.956;2024-01-30T10:19:24;10.87;;;9.50;;
16468;SDS011;8345;50.902;6.956;2024-01-30T10:21:52;12.63;;;9.40;;
16468;SDS011;8345;50.902;6.956;2024-01-30T10:24:24;10.60;;;9.57;;
16468;SDS011;8345;50.902;6.956;2024-01-30T10:26:53;13.17;;;9.77;;
16468;SDS011;8345;50.902;6.956;2024-01-30T10:29:20;10.13;;;9.10;;
16468;SDS011;8345;50.902;6.956;2024-01-30T10:31:57;11.70;;;8.87;;
16468;SDS011;8345;50.902;6.956;2024-01-30T10:34:24;13.10;;;9.60;;
16468;SDS011;8345;50.902;6.956;2024-01-30T10:36:56;10.07;;;9.07;;
16468;SDS011;8345;50.902;6.956;2024-01-30T10:39:29;9.17;;;8.27;;
16468;SDS011;8345;50.902;6.956;2024-01-30T10:41:59;10.37;;;8.80;;
16468;SDS011;8345;50.902;6.956;2024-01-30T10:44:28;9.47;;;8.47;;
16468;SDS011;8345;50.902;6.956;2024-01-30T10:46:59;10.97;;;9.47;;
16468;SDS011;8345;50.902;6.956;2024-01-30T10:49:27;11.40;;;8.77;;
16468;SDS011;8345;50.902;6.956;2024-01-30T10:51:55;11.20;;;8.50;;
16468;SDS011;8345;50.902;6.956;2024-01-30T10:54:23;12.57;;;9.13;;
16468;SDS011;8345;50.902;6.956;2024-01-30T10:56:53;12.10;;;8.53;;
16468;SDS011;8345;50.902;6.956;2024-01-30T10:59:20;9.60;;;8.37;;
16468;SDS011;8345;50.902;6.956;2024-01-30T11:01:49;10.73;;;9.03;;
16468;SDS011;8345;50.902;6.956;2024-01-30T11:04:17;9.53;;;8.63;;
16468;SDS011;8345;50.902;6.956;2024-01-30T11:06:44;9.73;;;8.53;;
16468;SDS011;8345;50.902;6.956;2024-01-30T11:09:11;10.77;;;8.47;;
16468;SDS011;8345;50.902;6.956;2024-01-30T11:11:48;11.07;;;8.63;;
16468;SDS011;8345;50.902;6.956;2024-01-30T11:14:17;13.20;;;8.60;;
16468;SDS011;8345;50.902;6.956;2024-01-30T11:16:49;10.37;;;8.17;;
16468;SDS011;8345;50.902;6.956;2024-01-30T11:19:22;10.57;;;8.23;;
16468;SDS011;8345;50.902;6.956;2024-01-30T11:21:50;12.70;;;8.17;;
16468;SDS011;8345;50.902;6.956;2024-01-30T11:24:19;8.90;;;8.10;;
16468;SDS011;8345;50.902;6.956;2024-01-30T11:26:48;12.03;;;8.90;;
16468;SDS011;8345;50.902;6.956;2024-01-30T11:29:18;9.83;;;8.33;;
16468;SDS011;8345;50.902;6.956;2024-01-30T11:31:51;11.00;;;8.23;;
16468;SDS011;8345;50.902;6.956;2024-01-30T11:34:19;10.27;;;8.23;;
16468;SDS011;8345;50.902;6.956;2024-01-30T11:36:51;9.67;;;8.13;;
16468;SDS011;8345;50.902;6.956;2024-01-30T11:39:24;10.47;;;8.30;;
16468;SDS011;8345;50.902;6.956;2024-01-30T11:41:52;8.80;;;7.83;;
16468;SDS011;8345;50.902;6.956;2024-01-30T11:44:21;13.80;;;8.17;;
16468;SDS011;8345;50.902;6.956;2024-01-30T11:46:49;9.67;;;7.67;;
16468;SDS011;8345;50.902;6.956;2024-01-30T11:49:16;9.87;;;8.00;;
16468;SDS011;8345;50.902;6.956;2024-01-30T11:51:44;9.50;;;8.13;;
16468;SDS011;8345;50.902;6.956;2024-01-30T11:54:13;9.37;;;7.80;;
16468;SDS011;8345;50.902;6.956;2024-01-30T11:56:41;10.60;;;8.40;;
16468;SDS011;8345;50.902;6.956;2024-01-30T11:59:08;9.40;;;8.17;;
16468;SDS011;8345;50.902;6.956;2024-01-30T12:01:37;8.77;;;7.83;;
16468;SDS011;8345;50.902;6.956;2024-01-30T12:04:04;9.43;;;7.60;;
16468;SDS011;8345;50.902;6.956;2024-01-30T12:06:34;10.50;;;7.97;;
16468;SDS011;8345;50.902;6.956;2024-01-30T12:09:02;9.63;;;7.83;;
16468;SDS011;8345;50.902;6.956;2024-01-30T12:11:30;8.63;;;7.73;;
16468;SDS011;8345;50.902;6.956;2024-01-30T12:13:58;10.30;;;7.90;;
16468;SDS011;8345;50.902;6.956;2024-01-30T12:16:26;9.43;;;7.40;;
16468;SDS011;8345;50.902;6.956;2024-01-30T12:19:00;8.67;;;7.47;;
16468;SDS011;8345;50.902;6.956;2024-01-30T12:21:28;8.93;;;7.97;;
16468;SDS011;8345;50.902;6.956;2024-01-30T12:23:56;8.47;;;7.47;;
16468;SDS011;8345;50.902;6.956;2024-01-30T12:26:23;9.53;;;8.03;;
16468;SDS011;8345;50.902;6.956;2024-01-30T12:28:54;9.63;;;7.53;;
16468;SDS011;8345;50.902;6.956;2024-01-30T12:31:26;9.10;;;7.37;;
16468;SDS011;8345;50.902;6.956;2024-01-30T12:33:53;9.63;;;7.07;;
16468;SDS011;8345;50.902;6.956;2024-01-30T12:36:23;13.80;;;8.63;;
16468;SDS011;8345;50.902;6.956;2024-01-30T12:38:50;10.03;;;7.53;;
16468;SDS011;8345;50.902;6.956;2024-01-30T12:41:17;9.77;;;8.27;;
16468;SDS011;8345;50.902;6.956;2024-01-30T12:43:45;8.63;;;7.70;;
16468;SDS011;8345;50.902;6.956;2024-01-30T12:46:13;8.40;;;7.60;;
16468;SDS011;8345;50.902;6.956;2024-01-30T12:48:43;10.37;;;8.03;;
16468;SDS011;8345;50.902;6.956;2024-01-30T12:51:10;9.63;;;8.37;;
16468;SDS011;8345;50.902;6.956;2024-01-30T12:53:39;8.67;;;7.37;;
16468;SDS011;8345;50.902;6.956;2024-01-30T12:56:06;9.33;;;7.37;;
16468;SDS011;8345;50.902;6.956;2024-01-30T12:58:34;11.70;;;7.90;;
16468;SDS011;8345;50.902;6.956;2024-01-30T13:01:01;10.67;;;7.97;;
16468;SDS011;8345;50.902;6.956;2024-01-30T13:03:28;10.07;;;8.13;;
16468;SDS011;8345;50.902;6.956;2024-01-30T13:05:56;8.47;;;7.67;;
16468;SDS011;8345;50.902;6.956;2024-01-30T13:08:23;9.43;;;7.90;;
16468;SDS011;8345;50.902;6.956;2024-01-30T13:10:52;9.90;;;8.70;;
16468;SDS011;8345;50.902;6.956;2024-01-30T13:13:22;9.23;;;7.80;;
16468;SDS011;8345;50.902;6.956;2024-01-30T13:15:50;12.97;;;8.60;;
16468;SDS011;8345;50.902;6.956;2024-01-30T13:18:17;8.83;;;7.37;;
16468;SDS011;8345;50.902;6.956;2024-01-30T13:20:45;10.97;;;8.07;;
16468;SDS011;8345;50.902;6.956;2024-01-30T13:23:12;11.87;;;8.07;;
16468;SDS011;8345;50.902;6.956;2024-01-30T13:25:39;10.60;;;8.20;;
16468;SDS011;8345;50.902;6.956;2024-01-30T13:28:08;11.27;;;7.57;;
16468;SDS011;8345;50.902;6.956;2024-01-30T13:30:36;24.00;;;15.20;;
16468;SDS011;8345;50.902;6.956;2024-01-30T13:33:04;75.03;;;31.43;;
16468;SDS011;8345;50.902;6.956;2024-01-30T13:35:32;66.47;;;29.00;;
16468;SDS011;8345;50.902;6.956;2024-01-30T13:37:59;73.80;;;31.67;;
16468;SDS011;8345;50.902;6.956;2024-01-30T13:40:27;11.43;;;8.33;;
16468;SDS011;8345;50.902;6.956;2024-01-30T13:42:57;12.07;;;8.73;;
16468;SDS011;8345;50.902;6.956;2024-01-30T13:45:29;10.30;;;7.87;;
16468;SDS011;8345;50.902;6.956;2024-01-30T13:47:56;12.23;;;7.90;;
16468;SDS011;8345;50.902;6.956;2024-01-30T13:50:24;12.83;;;8.37;;
16468;SDS011;8345;50.902;6.956;2024-01-30T13:52:54;9.50;;;8.50;;
16468;SDS011;8345;50.902;6.956;2024-01-30T13:55:22;11.80;;;8.60;;
16468;SDS011;8345;50.902;6.956;2024-01-30T13:57:50;10.17;;;7.80;;
16468;SDS011;8345;50.902;6.956;2024-01-30T14:00:17;10.00;;;7.77;;
16468;SDS011;8345;50.902;6.956;2024-01-30T14:02:48;11.07;;;8.37;;
16468;SDS011;8345;50.902;6.956;2024-01-30T14:05:16;15.40;;;8.43;;
16468;SDS011;8345;50.902;6.956;2024-01-30T14:07:43;18.37;;;9.80;;
16468;SDS011;8345;50.902;6.956;2024-01-30T14:10:11;13.90;;;8.80;;
16468;SDS011;8345;50.902;6.956;2024-01-30T14:12:39;13.93;;;8.23;;
16468;SDS011;8345;50.902;6.956;2024-01-30T14:15:07;11.93;;;8.90;;
16468;SDS011;8345;50.902;6.956;2024-01-30T14:17:36;11.13;;;8.27;;
16468;SDS011;8345;50.902;6.956;2024-01-30T14:20:05;11.60;;;8.27;;
16468;SDS011;8345;50.902;6.956;2024-01-30T14:22:33;11.70;;;8.10;;
16468;SDS011;8345;50.902;6.956;2024-01-30T14:25:02;11.37;;;7.47;;
16468;SDS011;8345;50.902;6.956;2024-01-30T14:27:30;14.27;;;8.80;;
16468;SDS011;8345;50.902;6.956;2024-01-30T14:29:58;11.47;;;8.60;;
16468;SDS011;8345;50.902;6.956;2024-01-30T14:32:25;12.73;;;8.77;;
16468;SDS011;8345;50.902;6.956;2024-01-30T14:34:56;11.20;;;8.20;;
16468;SDS011;8345;50.902;6.956;2024-01-30T14:37:25;9.90;;;7.50;;
16468;SDS011;8345;50.902;6.956;2024-01-30T14:39:55;9.43;;;7.57;;
16468;SDS011;8345;50.902;6.956;2024-01-30T14:42:22;11.73;;;6.87;;
16468;SDS011;8345;50.902;6.956;2024-01-30T14:44:50;7.17;;;6.43;;
16468;SDS011;8345;50.902;6.956;2024-01-30T14:47:17;9.47;;;6.70;;
16468;SDS011;8345;50.902;6.956;2024-01-30T14:49:44;9.67;;;6.33;;
16468;SDS011;8345;50.902;6.956;2024-01-30T14:52:12;9.77;;;5.90;;
16468;SDS011;8345;50.902;6.956;2024-01-30T14:54:40;7.23;;;5.60;;
16468;SDS011;8345;50.902;6.956;2024-01-30T14:57:08;7.83;;;6.17;;
16468;SDS011;8345;50.902;6.956;2024-01-30T14:59:36;8.90;;;5.70;;
16468;SDS011;8345;50.902;6.956;2024-01-30T15:02:03;7.80;;;5.03;;
16468;SDS011;8345;50.902;6.956;2024-01-30T15:04:30;8.20;;;5.17;;